Time;durP1;ratioP1;P1;durP2;ratioP2;P2;SDS_P1;SDS_P2;PMS_P1;PMS_P2;Temp;Humidity;BMP_temperature;BMP_pressure;BME280_temperature;BME280_humidity;BME280_pressure;Samples;Min_cycle;Max_cycle;Signal;HPM_P1;HPM_P2
2023/04/19 00:02:15;;;;;;;5.97;5.20;;;5.70;99.90;;;;;;4996274;28;20319;-84
2023/04/19 00:04:43;;;;;;;12.93;5.40;;;5.70;99.90;;;;;;4979846;28;20618;-84
2023/04/19 00:07:10;;;;;;;8.80;4.87;;;5.70;99.90;;;;;;4970689;28;20406;-85
2023/04/19 00:09:39;;;;;;;7.57;5.13;;;5.70;99.90;;;;;;4976402;28;20575;-84
2023/04/19 00:12:06;;;;;;;7.23;5.10;;;5.70;99.90;;;;;;4981236;28;20207;-85
2023/04/19 00:14:33;;;;;;;6.80;4.60;;;5.60;99.90;;;;;;5010688;28;20223;-84
2023/04/19 00:17:00;;;;;;;7.23;4.83;;;5.60;99.90;;;;;;4976487;28;20212;-85
2023/04/19 00:19:27;;;;;;;6.47;4.47;;;5.60;99.90;;;;;;4972603;28;20220;-84
2023/04/19 00:21:54;;;;;;;4.83;4.17;;;5.50;99.90;;;;;;4992380;28;20200;-85
2023/04/19 00:24:21;;;;;;;7.13;4.13;;;5.60;99.90;;;;;;4980748;28;20196;-85
2023/04/19 00:26:49;;;;;;;5.70;3.83;;;5.50;99.90;;;;;;4974425;28;20259;-85
2023/04/19 00:29:16;;;;;;;5.07;3.83;;;5.60;99.90;;;;;;4998126;28;20324;-84
2023/04/19 00:31:44;;;;;;;5.33;3.80;;;5.60;99.90;;;;;;5003541;28;20211;-85
2023/04/19 00:34:11;;;;;;;5.20;3.87;;;5.60;99.90;;;;;;4965253;28;21199;-84
2023/04/19 00:36:37;;;;;;;8.63;3.47;;;5.60;99.90;;;;;;4985388;28;20502;-84
2023/04/19 00:39:06;;;;;;;7.23;4.30;;;5.60;99.90;;;;;;4970776;28;20212;-84
2023/04/19 00:41:33;;;;;;;4.37;3.70;;;5.60;99.90;;;;;;4977338;28;20296;-84
2023/04/19 00:44:02;;;;;;;4.57;3.73;;;5.50;99.90;;;;;;5003630;28;20276;-85
2023/04/19 00:46:29;;;;;;;6.07;3.23;;;5.50;99.90;;;;;;4992934;28;20205;-84
2023/04/19 00:48:56;;;;;;;6.53;3.50;;;5.50;99.90;;;;;;4976512;28;20220;-85
2023/04/19 00:51:23;;;;;;;4.80;3.80;;;5.50;99.90;;;;;;4978281;28;20979;-85
2023/04/19 00:53:50;;;;;;;4.37;3.17;;;5.50;99.90;;;;;;4979190;28;20227;-86
2023/04/19 00:56:21;;;;;;;4.07;3.60;;;5.40;99.90;;;;;;4978961;28;20209;-85
2023/04/19 00:58:49;;;;;;;3.53;2.87;;;5.50;99.90;;;;;;5002236;28;20231;-85
2023/04/19 01:01:18;;;;;;;6.63;3.63;;;5.50;99.90;;;;;;4991491;28;20235;-84
2023/04/19 01:03:46;;;;;;;5.33;3.43;;;5.50;99.90;;;;;;4989681;28;20254;-85
2023/04/19 01:06:14;;;;;;;3.83;2.93;;;5.50;99.90;;;;;;4967095;28;20498;-85
2023/04/19 01:08:42;;;;;;;3.13;2.83;;;5.50;99.90;;;;;;4972357;28;20288;-84
2023/04/19 01:11:09;;;;;;;4.33;3.03;;;5.50;99.90;;;;;;4979141;28;20499;-86
2023/04/19 01:13:36;;;;;;;3.90;2.90;;;5.50;99.90;;;;;;4978732;28;20296;-85
2023/04/19 01:16:04;;;;;;;3.13;2.83;;;5.50;99.90;;;;;;4975399;28;20227;-85
2023/04/19 01:18:36;;;;;;;5.90;3.23;;;5.40;99.90;;;;;;4997325;28;20689;-86
2023/04/19 01:21:04;;;;;;;3.90;3.10;;;5.40;99.90;;;;;;4979454;28;20270;-85
2023/04/19 01:23:35;;;;;;;4.37;3.17;;;5.50;99.90;;;;;;4976816;28;20203;-85
2023/04/19 01:26:01;;;;;;;6.50;3.37;;;5.50;99.90;;;;;;4982540;28;20225;-84
2023/04/19 01:28:29;;;;;;;6.43;3.27;;;5.40;99.90;;;;;;4981152;28;20229;-85
2023/04/19 01:30:55;;;;;;;5.87;3.00;;;5.40;99.90;;;;;;4976249;28;20205;-86
2023/04/19 01:33:23;;;;;;;6.60;3.00;;;5.40;99.90;;;;;;4987545;28;20586;-85
2023/04/19 01:35:51;;;;;;;3.63;2.70;;;5.40;99.90;;;;;;5003454;28;20756;-85
2023/04/19 01:38:17;;;;;;;5.10;2.93;;;5.40;99.90;;;;;;4959705;28;20240;-85
2023/04/19 01:40:45;;;;;;;5.23;2.60;;;5.40;99.90;;;;;;4970907;28;20690;-85
2023/04/19 01:43:13;;;;;;;4.23;2.63;;;5.40;99.90;;;;;;4987744;28;20602;-85
2023/04/19 01:45:41;;;;;;;6.30;2.80;;;5.30;99.90;;;;;;4985080;28;20749;-85
2023/04/19 01:48:08;;;;;;;4.67;2.83;;;5.30;99.90;;;;;;4983349;28;20245;-85
2023/04/19 01:50:35;;;;;;;4.30;2.67;;;5.30;99.90;;;;;;4971403;28;20197;-85
2023/04/19 01:53:04;;;;;;;3.60;2.80;;;5.30;99.90;;;;;;4963516;28;20400;-85
2023/04/19 01:55:32;;;;;;;3.40;2.80;;;5.30;99.90;;;;;;4984545;28;20213;-85
2023/04/19 01:58:00;;;;;;;3.17;2.37;;;5.20;99.90;;;;;;5001216;28;20528;-85
2023/04/19 02:00:29;;;;;;;6.70;3.17;;;5.20;99.90;;;;;;4988320;28;20518;-85
2023/04/19 02:02:56;;;;;;;5.30;3.10;;;5.20;99.90;;;;;;4990651;28;20248;-85
2023/04/19 02:05:23;;;;;;;2.77;2.57;;;5.20;99.90;;;;;;4977078;28;20202;-85
2023/04/19 02:07:50;;;;;;;6.37;2.90;;;5.20;99.90;;;;;;4986898;28;20697;-86
2023/04/19 02:10:17;;;;;;;7.80;3.37;;;5.10;99.90;;;;;;4990730;28;20206;-85
2023/04/19 02:12:45;;;;;;;5.33;3.50;;;5.10;99.90;;;;;;4990362;28;20200;-86
2023/04/19 02:15:13;;;;;;;4.40;2.90;;;5.10;99.90;;;;;;4966613;28;20217;-85
2023/04/19 02:17:41;;;;;;;5.90;2.93;;;5.10;99.90;;;;;;4989874;28;20205;-85
2023/04/19 02:20:09;;;;;;;6.50;3.07;;;5.00;99.90;;;;;;4981805;28;20271;-86
2023/04/19 02:22:36;;;;;;;4.83;3.33;;;5.00;99.90;;;;;;4987089;28;20205;-85
2023/04/19 02:25:06;;;;;;;5.17;2.67;;;5.00;99.90;;;;;;5004363;28;20192;-85
2023/04/19 02:27:33;;;;;;;4.43;3.37;;;4.90;99.90;;;;;;4987438;28;20765;-85
2023/04/19 02:30:00;;;;;;;4.17;3.20;;;4.90;99.90;;;;;;4982100;28;23380;-86
2023/04/19 02:32:28;;;;;;;7.00;3.50;;;4.90;99.90;;;;;;4987896;28;20611;-85
2023/04/19 02:34:56;;;;;;;6.43;2.73;;;4.90;99.90;;;;;;4999187;28;20221;-86
2023/04/19 02:37:24;;;;;;;8.40;3.33;;;4.80;99.90;;;;;;4993524;28;20206;-85
2023/04/19 02:39:51;;;;;;;6.57;2.73;;;4.80;99.90;;;;;;4967329;28;20268;-85
2023/04/19 02:42:18;;;;;;;5.43;3.37;;;4.70;99.90;;;;;;4979452;28;20216;-85
2023/04/19 02:44:45;;;;;;;5.63;3.10;;;4.70;99.90;;;;;;4985453;28;20299;-85
2023/04/19 02:47:12;;;;;;;4.10;3.70;;;4.70;99.90;;;;;;4994889;28;20205;-85
2023/04/19 02:49:41;;;;;;;7.00;2.97;;;4.70;99.90;;;;;;5013331;28;20724;-84
2023/04/19 02:52:09;;;;;;;3.33;3.03;;;4.60;99.90;;;;;;4987542;28;20254;-85
2023/04/19 02:54:40;;;;;;;4.53;2.93;;;4.60;99.90;;;;;;4980209;28;20764;-86
2023/04/19 02:57:07;;;;;;;4.33;3.17;;;4.50;99.90;;;;;;4995806;28;20897;-85
2023/04/19 02:59:33;;;;;;;6.20;3.23;;;4.60;99.90;;;;;;4992204;28;20679;-85
2023/04/19 03:02:03;;;;;;;5.33;3.07;;;4.60;99.90;;;;;;4977599;28;20196;-85
2023/04/19 03:04:30;;;;;;;7.40;3.07;;;4.60;99.90;;;;;;4988575;28;20221;-84
2023/04/19 03:06:58;;;;;;;5.10;3.10;;;4.60;99.90;;;;;;5026865;28;20267;-85
2023/04/19 03:09:26;;;;;;;3.90;2.83;;;4.70;99.90;;;;;;4973381;28;20212;-85
2023/04/19 03:11:53;;;;;;;3.43;2.90;;;4.60;99.90;;;;;;4962209;28;20200;-85
2023/04/19 03:14:20;;;;;;;9.10;3.07;;;4.70;99.90;;;;;;4989067;28;20199;-84
2023/04/19 03:16:47;;;;;;;4.57;2.63;;;4.60;99.90;;;;;;4982904;28;20666;-86
2023/04/19 03:19:15;;;;;;;5.43;2.67;;;4.70;99.90;;;;;;4994439;28;20300;-85
2023/04/19 03:21:48;;;;;;;4.03;3.00;;;4.60;99.90;;;;;;4984245;28;20766;-86
2023/04/19 03:24:19;;;;;;;3.93;2.57;;;4.60;99.90;;;;;;4974995;28;20797;-85
2023/04/19 03:26:49;;;;;;;3.13;2.70;;;4.60;99.90;;;;;;4964626;28;20666;-86
2023/04/19 03:29:22;;;;;;;5.70;2.80;;;4.60;99.90;;;;;;4989550;28;20315;-84
2023/04/19 03:31:59;;;;;;;4.50;2.53;;;4.60;99.90;;;;;;4994301;28;20442;-85
2023/04/19 03:34:27;;;;;;;5.00;2.87;;;4.60;99.90;;;;;;4979819;28;20210;-85
2023/04/19 03:36:54;;;;;;;3.23;2.73;;;4.60;99.90;;;;;;4996563;28;20260;-85
2023/04/19 03:39:22;;;;;;;5.97;3.03;;;4.50;99.90;;;;;;4985126;28;20310;-85
2023/04/19 03:41:53;;;;;;;3.33;2.77;;;4.50;99.90;;;;;;4954309;28;20197;-84
2023/04/19 03:44:40;;;;;;;4.87;2.77;;;4.50;99.90;;;;;;4993172;28;20440;-84
2023/04/19 03:47:09;;;;;;;4.20;2.80;;;4.50;99.90;;;;;;4986359;28;20196;-85
2023/04/19 03:49:41;;;;;;;3.67;2.57;;;4.50;99.90;;;;;;4976332;28;20729;-85
2023/04/19 03:52:09;;;;;;;6.83;3.20;;;4.40;99.90;;;;;;4976158;28;20271;-85
2023/04/19 03:54:37;;;;;;;2.77;2.57;;;4.40;99.90;;;;;;5013051;28;20907;-84
2023/04/19 03:57:08;;;;;;;5.23;2.80;;;4.40;99.90;;;;;;4972894;28;20232;-84
2023/04/19 03:59:38;;;;;;;2.87;2.63;;;4.30;99.90;;;;;;4989118;28;20631;-85
2023/04/19 04:02:07;;;;;;;6.50;2.97;;;4.30;99.90;;;;;;4989140;28;20678;-85
2023/04/19 04:04:34;;;;;;;4.13;3.10;;;4.30;99.90;;;;;;4964559;28;20726;-84
2023/04/19 04:07:01;;;;;;;3.17;2.63;;;4.30;99.90;;;;;;4988790;28;20196;-85
2023/04/19 04:09:28;;;;;;;3.03;2.73;;;4.30;99.90;;;;;;4987519;28;20270;-85
2023/04/19 04:11:56;;;;;;;3.80;3.00;;;4.30;99.90;;;;;;4984069;28;20304;-85
2023/04/19 04:14:25;;;;;;;4.20;2.77;;;4.30;99.90;;;;;;4980742;28;20208;-85
2023/04/19 04:16:52;;;;;;;4.87;2.93;;;4.30;99.90;;;;;;5010926;28;20224;-85
2023/04/19 04:19:20;;;;;;;5.17;2.80;;;4.30;99.90;;;;;;4997451;28;20529;-85
2023/04/19 04:21:50;;;;;;;4.07;2.43;;;4.20;99.90;;;;;;4989770;28;20426;-85
2023/04/19 04:24:19;;;;;;;5.07;2.97;;;4.20;99.90;;;;;;5000351;28;20713;-85
2023/04/19 04:27:05;;;;;;;2.97;2.20;;;4.20;99.90;;;;;;4987588;28;20195;-84
2023/04/19 04:29:36;;;;;;;2.80;2.50;;;4.20;99.90;;;;;;4970868;28;20221;-86
2023/04/19 04:32:09;;;;;;;3.00;2.53;;;4.20;99.90;;;;;;4978537;28;20698;-85
2023/04/19 04:34:42;;;;;;;2.47;2.27;;;4.20;99.90;;;;;;4965163;28;20234;-85
2023/04/19 04:37:16;;;;;;;6.20;2.87;;;4.30;99.90;;;;;;4983483;28;20323;-86
2023/04/19 04:39:44;;;;;;;3.33;2.40;;;4.30;99.90;;;;;;5002217;28;20215;-85
2023/04/19 04:42:13;;;;;;;2.93;2.30;;;4.30;99.90;;;;;;4986410;28;20209;-86
2023/04/19 04:44:40;;;;;;;3.33;2.20;;;4.40;99.90;;;;;;4987881;28;20479;-85
2023/04/19 04:47:08;;;;;;;3.27;2.10;;;4.50;99.90;;;;;;4994762;28;20287;-85
2023/04/19 04:49:43;;;;;;;4.00;2.67;;;4.50;99.90;;;;;;4979077;28;20735;-84
2023/04/19 04:52:10;;;;;;;2.77;2.10;;;4.50;99.90;;;;;;4995969;28;20288;-86
2023/04/19 04:54:47;;;;;;;2.50;2.30;;;4.60;99.90;;;;;;4985155;28;20196;-84
2023/04/19 04:57:27;;;;;;;7.17;1.90;;;4.70;99.90;;;;;;4997036;28;20600;-88
2023/04/19 04:59:55;;;;;;;3.70;2.47;;;4.70;99.90;;;;;;4967729;28;20219;-87
2023/04/19 05:02:24;;;;;;;3.60;2.10;;;4.80;99.90;;;;;;4978582;28;20223;-87
2023/04/19 05:04:52;;;;;;;1.97;1.60;;;4.80;99.90;;;;;;5012772;28;20258;-85
2023/04/19 05:07:19;;;;;;;2.70;1.63;;;4.90;99.90;;;;;;5002290;28;20232;-85
2023/04/19 05:09:46;;;;;;;2.17;2.00;;;5.00;99.90;;;;;;4985189;28;20217;-82
2023/04/19 05:12:18;;;;;;;7.43;2.00;;;5.00;99.90;;;;;;4980928;28;20209;-84
2023/04/19 05:14:48;;;;;;;2.27;1.70;;;5.10;99.90;;;;;;4974622;28;20270;-84
2023/04/19 05:17:16;;;;;;;3.13;1.70;;;5.20;99.90;;;;;;5011765;28;20592;-85
2023/04/19 05:19:43;;;;;;;2.27;1.53;;;5.20;99.90;;;;;;4988849;28;20908;-84
2023/04/19 05:22:11;;;;;;;2.57;1.60;;;5.30;99.90;;;;;;4977979;28;20205;-85
2023/04/19 05:24:39;;;;;;;2.83;1.80;;;5.40;99.90;;;;;;4998420;28;20497;-85
2023/04/19 05:27:06;;;;;;;2.70;1.90;;;5.40;99.90;;;;;;4996380;28;20197;-85
2023/04/19 05:29:34;;;;;;;2.90;1.53;;;5.50;99.90;;;;;;4975449;28;20256;-85
2023/04/19 05:32:06;;;;;;;1.93;1.33;;;5.50;99.90;;;;;;4977303;28;20211;-84
2023/04/19 05:34:42;;;;;;;2.30;1.50;;;5.60;99.90;;;;;;5009100;28;20198;-84
2023/04/19 05:37:13;;;;;;;2.40;1.67;;;5.70;99.90;;;;;;4997210;28;20224;-85
2023/04/19 05:39:40;;;;;;;3.37;1.50;;;5.80;99.90;;;;;;5020950;28;20752;-84
2023/04/19 05:42:07;;;;;;;2.87;1.57;;;5.80;99.90;;;;;;4973584;28;20212;-84
2023/04/19 05:44:34;;;;;;;2.33;1.50;;;5.90;99.90;;;;;;4970739;28;20399;-84
2023/04/19 05:47:02;;;;;;;1.80;1.40;;;6.00;99.90;;;;;;4971333;28;20551;-84
2023/04/19 05:49:54;;;;;;;1.30;1.00;;;6.00;99.90;;;;;;5002519;28;20566;-84
2023/04/19 05:52:29;;;;;;;2.30;1.67;;;6.10;99.90;;;;;;4975077;28;20209;-85
2023/04/19 05:54:58;;;;;;;4.23;1.60;;;6.20;99.90;;;;;;4988072;28;20237;-84
2023/04/19 05:57:28;;;;;;;1.17;1.07;;;6.20;99.90;;;;;;4967683;28;20220;-85
2023/04/19 05:59:55;;;;;;;1.53;1.30;;;6.30;99.90;;;;;;4982484;28;20204;-83
2023/04/19 06:02:25;;;;;;;3.87;1.20;;;6.40;99.90;;;;;;4985257;28;20207;-85
2023/04/19 06:04:56;;;;;;;1.57;1.47;;;6.40;99.90;;;;;;4990000;28;20252;-83
2023/04/19 06:07:23;;;;;;;2.33;1.30;;;6.50;99.90;;;;;;4990620;28;20204;-85
2023/04/19 06:09:51;;;;;;;1.67;1.27;;;6.60;99.90;;;;;;4997630;28;21622;-85
2023/04/19 06:12:18;;;;;;;2.97;1.47;;;6.70;99.90;;;;;;5003034;28;20193;-86
2023/04/19 06:14:45;;;;;;;2.20;1.50;;;6.80;99.90;;;;;;4997876;28;20424;-86
2023/04/19 06:17:13;;;;;;;2.10;1.03;;;6.80;99.90;;;;;;4984057;28;20220;-86
2023/04/19 06:19:40;;;;;;;3.80;1.43;;;6.90;99.90;;;;;;5000785;28;20793;-83
2023/04/19 06:22:09;;;;;;;2.00;1.40;;;7.00;99.90;;;;;;5008529;28;20223;-86
2023/04/19 06:24:36;;;;;;;2.00;1.10;;;7.10;99.90;;;;;;4955444;28;20394;-84
2023/04/19 06:27:04;;;;;;;2.13;1.00;;;7.20;99.90;;;;;;4988818;28;20196;-84
2023/04/19 06:29:31;;;;;;;4.90;1.20;;;7.30;99.90;;;;;;5009789;28;20544;-87
2023/04/19 06:31:58;;;;;;;1.50;1.23;;;7.40;99.90;;;;;;4966365;28;20879;-83
2023/04/19 06:34:26;;;;;;;1.13;1.03;;;7.40;99.90;;;;;;4981333;28;20415;-83
2023/04/19 06:36:53;;;;;;;1.40;1.20;;;7.50;99.90;;;;;;4978706;28;20972;-85
2023/04/19 06:39:21;;;;;;;1.67;1.10;;;7.50;99.90;;;;;;4979221;28;20537;-84
2023/04/19 06:41:50;;;;;;;1.23;1.13;;;7.60;99.90;;;;;;4977893;28;20209;-85
2023/04/19 06:44:18;;;;;;;1.30;1.10;;;7.70;99.90;;;;;;4975080;28;20211;-86
2023/04/19 06:46:45;;;;;;;1.30;1.20;;;7.80;99.90;;;;;;5012927;28;20193;-84
2023/04/19 06:49:13;;;;;;;2.60;1.10;;;7.90;99.90;;;;;;4984486;28;20449;-83
2023/04/19 06:51:39;;;;;;;1.80;1.37;;;7.90;99.90;;;;;;4997072;28;20634;-85
2023/04/19 06:54:07;;;;;;;0.83;0.83;;;8.00;99.90;;;;;;4992660;28;20238;-84
2023/04/19 06:56:44;;;;;;;0.90;0.90;;;8.10;99.90;;;;;;5005101;28;20220;-88
2023/04/19 06:59:12;;;;;;;4.43;1.20;;;8.20;99.90;;;;;;4993053;28;20252;-86
2023/04/19 07:01:40;;;;;;;2.27;1.10;;;8.30;99.90;;;;;;4992673;28;20277;-85
2023/04/19 07:04:07;;;;;;;0.80;0.80;;;8.40;99.90;;;;;;4989423;28;20213;-87
2023/04/19 07:06:53;;;;;;;1.33;0.83;;;8.50;99.90;;;;;;5005886;28;20703;-89
2023/04/19 07:09:21;;;;;;;1.03;0.70;;;8.60;99.90;;;;;;5004379;28;20883;-86
2023/04/19 07:11:50;;;;;;;2.00;0.90;;;8.70;99.90;;;;;;4985500;28;20213;-86
2023/04/19 07:14:18;;;;;;;0.80;0.77;;;8.80;99.90;;;;;;5007213;28;20418;-85
2023/04/19 07:16:45;;;;;;;2.40;1.20;;;8.90;99.90;;;;;;4983534;28;20263;-85
2023/04/19 07:19:30;;;;;;;2.23;0.87;;;9.00;99.90;;;;;;4986107;28;21626;-83
2023/04/19 07:21:57;;;;;;;1.20;1.10;;;9.10;99.90;;;;;;4983347;28;20284;-86
2023/04/19 07:24:26;;;;;;;1.60;1.10;;;9.20;99.90;;;;;;4980664;28;20260;-82
2023/04/19 07:26:56;;;;;;;0.97;0.80;;;9.20;99.90;;;;;;5017516;28;20233;-83
2023/04/19 07:29:23;;;;;;;1.63;0.87;;;9.30;99.90;;;;;;5018417;28;20307;-83
2023/04/19 07:31:50;;;;;;;2.10;0.60;;;9.40;99.90;;;;;;4980779;28;20212;-84
2023/04/19 07:34:17;;;;;;;4.23;0.90;;;9.50;99.90;;;;;;4983601;28;20512;-83
2023/04/19 07:36:44;;;;;;;0.80;0.60;;;9.50;99.90;;;;;;4992073;28;20576;-84
2023/04/19 07:39:12;;;;;;;0.50;0.50;;;9.60;99.90;;;;;;4990995;28;20225;-83
2023/04/19 07:41:39;;;;;;;1.43;0.50;;;9.60;99.90;;;;;;5004051;28;20200;-83
2023/04/19 07:44:07;;;;;;;1.63;0.60;;;9.70;99.90;;;;;;5001389;28;20201;-85
2023/04/19 07:46:35;;;;;;;1.13;0.60;;;9.80;99.90;;;;;;4978265;28;20207;-84
2023/04/19 07:49:02;;;;;;;1.23;0.50;;;10.00;99.90;;;;;;4989373;28;20221;-84
2023/04/19 07:51:51;;;;;;;0.50;0.50;;;10.00;99.90;;;;;;4996793;28;20219;-85
2023/04/19 07:54:20;;;;;;;0.60;0.60;;;10.10;99.90;;;;;;4987076;28;20200;-84
2023/04/19 07:56:47;;;;;;;0.70;0.70;;;10.30;99.90;;;;;;4990171;28;20227;-84
2023/04/19 07:59:15;;;;;;;2.50;0.80;;;10.40;99.90;;;;;;4976466;28;20269;-84
2023/04/19 08:01:43;;;;;;;2.00;0.60;;;10.50;99.90;;;;;;4972782;28;20232;-87
2023/04/19 08:04:09;;;;;;;1.00;0.60;;;10.60;99.90;;;;;;4993515;28;20220;-84
2023/04/19 08:06:41;;;;;;;2.90;0.60;;;10.70;99.90;;;;;;4995603;28;21022;-84
2023/04/19 08:09:08;;;;;;;0.97;0.60;;;10.90;99.90;;;;;;5002299;28;20221;-85
2023/04/19 08:11:35;;;;;;;0.70;0.70;;;11.00;99.60;;;;;;4995344;28;20224;-84
2023/04/19 08:14:01;;;;;;;3.43;0.63;;;10.90;99.70;;;;;;5002987;28;20268;-85
2023/04/19 08:16:31;;;;;;;1.07;0.70;;;11.10;98.30;;;;;;4985958;28;20205;-86
2023/04/19 08:18:58;;;;;;;3.20;0.60;;;11.10;98.10;;;;;;5007686;28;20231;-84
2023/04/19 08:21:25;;;;;;;0.80;0.50;;;11.20;98.10;;;;;;4993388;28;20663;-86
2023/04/19 08:23:52;;;;;;;1.30;1.00;;;11.30;97.90;;;;;;4986829;28;20234;-84
2023/04/19 08:26:19;;;;;;;3.00;0.60;;;11.40;98.50;;;;;;4984317;28;20208;-84
2023/04/19 08:28:46;;;;;;;2.03;0.90;;;11.50;97.60;;;;;;4972210;28;20258;-84
2023/04/19 08:31:13;;;;;;;3.70;0.90;;;11.60;97.40;;;;;;5015426;28;20220;-84
2023/04/19 08:33:42;;;;;;;0.60;0.60;;;11.70;97.30;;;;;;4981295;28;20574;-84
2023/04/19 08:36:09;;;;;;;0.50;0.50;;;11.80;96.90;;;;;;4973927;28;20233;-84
2023/04/19 08:38:37;;;;;;;0.63;0.63;;;11.80;96.90;;;;;;4980198;28;20894;-84
2023/04/19 08:41:05;;;;;;;0.73;0.57;;;11.80;97.00;;;;;;4986369;28;20232;-84
2023/04/19 08:43:36;;;;;;;4.53;0.77;;;12.00;96.90;;;;;;4973907;28;20211;-84
2023/04/19 08:46:04;;;;;;;1.13;0.80;;;12.10;96.60;;;;;;5005847;28;20200;-84
2023/04/19 08:48:35;;;;;;;0.63;0.60;;;12.20;96.30;;;;;;4996571;28;20217;-84
2023/04/19 08:51:05;;;;;;;2.83;1.30;;;12.20;95.90;;;;;;5001258;28;20204;-85
2023/04/19 08:53:34;;;;;;;0.97;0.60;;;12.30;96.30;;;;;;4984725;28;20213;-84
2023/04/19 08:56:01;;;;;;;1.03;0.70;;;12.30;95.50;;;;;;4977629;28;20201;-84
2023/04/19 08:58:31;;;;;;;0.93;0.50;;;12.30;94.90;;;;;;5001583;28;20220;-83
2023/04/19 09:01:03;;;;;;;1.20;0.83;;;12.30;94.00;;;;;;4982807;28;20303;-84
2023/04/19 09:03:30;;;;;;;0.70;0.70;;;12.20;93.60;;;;;;4988813;28;20742;-85
2023/04/19 09:06:00;;;;;;;2.00;1.00;;;12.20;92.80;;;;;;4984031;28;20227;-84
2023/04/19 09:08:32;;;;;;;1.70;0.70;;;12.30;92.90;;;;;;4977568;28;20244;-83
2023/04/19 09:11:00;;;;;;;2.70;0.77;;;12.20;92.60;;;;;;4996136;28;20216;-84
2023/04/19 09:13:30;;;;;;;1.13;0.80;;;12.30;92.70;;;;;;5002008;28;20196;-84
2023/04/19 09:15:59;;;;;;;2.03;0.90;;;12.40;92.80;;;;;;4984028;28;20192;-84
2023/04/19 09:18:26;;;;;;;1.10;0.67;;;12.50;92.60;;;;;;5013741;28;20334;-83
2023/04/19 09:20:56;;;;;;;0.63;0.63;;;12.60;92.60;;;;;;4985945;28;20204;-84
2023/04/19 09:23:48;;;;;;;1.30;0.90;;;12.70;92.10;;;;;;4980919;28;20699;-83
2023/04/19 09:26:15;;;;;;;0.90;0.90;;;12.70;90.50;;;;;;4984229;28;20216;-83
2023/04/19 09:28:55;;;;;;;1.07;0.90;;;12.70;90.70;;;;;;4981715;28;20236;-86
2023/04/19 09:31:23;;;;;;;1.10;1.00;;;12.70;90.30;;;;;;4989910;28;20204;-85
2023/04/19 09:33:53;;;;;;;1.10;1.00;;;12.70;88.80;;;;;;4997892;28;20281;-85
2023/04/19 09:36:28;;;;;;;1.37;1.23;;;12.70;88.90;;;;;;4971910;28;20219;-90
2023/04/19 09:38:59;;;;;;;1.97;1.30;;;12.80;85.10;;;;;;4976402;28;20311;-86
2023/04/19 09:41:34;;;;;;;2.40;1.30;;;12.70;86.20;;;;;;4992046;28;20208;-85
2023/04/19 09:44:10;;;;;;;1.80;1.10;;;12.80;85.30;;;;;;4983078;28;20204;-86
2023/04/19 09:46:39;;;;;;;3.47;1.47;;;12.80;79.70;;;;;;4979065;28;20650;-85
2023/04/19 09:49:18;;;;;;;3.40;1.20;;;12.90;79.10;;;;;;4972157;28;20604;-83
2023/04/19 09:52:05;;;;;;;7.57;1.73;;;12.80;74.50;;;;;;5005094;28;20212;-82
2023/04/19 09:54:34;;;;;;;1.07;1.00;;;12.70;73.60;;;;;;4984415;28;20200;-85
2023/04/19 09:57:01;;;;;;;2.03;1.20;;;12.80;73.40;;;;;;5005968;28;20559;-83
2023/04/19 09:59:29;;;;;;;1.60;1.20;;;12.90;70.50;;;;;;4988973;28;20231;-82
2023/04/19 10:01:56;;;;;;;1.87;1.30;;;12.80;68.10;;;;;;4991803;28;20194;-85
2023/04/19 10:04:23;;;;;;;4.90;1.33;;;12.80;67.50;;;;;;4986147;28;20666;-85
2023/04/19 10:06:51;;;;;;;2.10;1.23;;;12.70;64.10;;;;;;4976042;28;20205;-84
2023/04/19 10:09:19;;;;;;;5.90;1.60;;;12.70;65.50;;;;;;4965627;28;20752;-85
2023/04/19 10:11:49;;;;;;;3.37;1.30;;;12.80;66.30;;;;;;4987307;28;20290;-84
2023/04/19 10:14:19;;;;;;;2.43;1.63;;;12.90;65.80;;;;;;5000806;28;20736;-85
2023/04/19 10:16:47;;;;;;;1.93;1.20;;;12.90;64.90;;;;;;4983276;28;20299;-85
2023/04/19 10:19:16;;;;;;;1.20;1.10;;;13.00;65.00;;;;;;4974666;28;20314;-84
2023/04/19 10:21:45;;;;;;;2.90;1.40;;;13.10;65.20;;;;;;4995782;28;20406;-86
2023/04/19 10:24:14;;;;;;;2.33;1.40;;;13.20;64.60;;;;;;4974993;28;20211;-86
2023/04/19 10:27:09;;;;;;;5.43;1.60;;;13.20;61.10;;;;;;4993398;28;20470;-86
2023/04/19 10:29:59;;;;;;;1.67;1.30;;;13.10;58.10;;;;;;4984168;28;20504;-86
2023/04/19 10:32:29;;;;;;;1.80;0.90;;;13.10;57.60;;;;;;4975459;28;20205;-89
2023/04/19 10:35:00;;;;;;;5.37;1.53;;;13.10;59.70;;;;;;4971077;28;20215;-85
2023/04/19 10:37:27;;;;;;;1.87;1.70;;;13.10;59.70;;;;;;4996371;28;20300;-86
2023/04/19 10:39:55;;;;;;;2.90;1.53;;;13.10;59.30;;;;;;4977323;28;20271;-85
2023/04/19 10:42:24;;;;;;;1.30;1.20;;;13.30;59.10;;;;;;4996994;28;20674;-85
2023/04/19 10:45:31;;;;;;;8.50;1.70;;;13.30;56.70;;;;;;4983090;28;20200;-84
2023/04/19 10:47:59;;;;;;;4.93;1.27;;;13.30;56.50;;;;;;4976670;28;20213;-84
2023/04/19 10:50:28;;;;;;;3.43;1.17;;;13.30;56.00;;;;;;4996969;28;20255;-84
2023/04/19 10:52:55;;;;;;;1.50;1.40;;;13.40;57.20;;;;;;4981209;28;20197;-86
2023/04/19 10:55:23;;;;;;;2.10;1.27;;;13.40;55.80;;;;;;5007950;28;20300;-84
2023/04/19 10:58:06;;;;;;;1.43;1.33;;;13.40;56.20;;;;;;4980787;28;20247;-85
2023/04/19 11:00:35;;;;;;;4.33;1.50;;;13.40;53.20;;;;;;4981797;28;20201;-85
2023/04/19 11:03:44;;;;;;;6.60;1.60;;;13.30;52.40;;;;;;4986609;28;20224;-84
2023/04/19 11:06:20;;;;;;;3.03;1.60;;;13.10;50.90;;;;;;4980089;28;20236;-84
2023/04/19 11:08:49;;;;;;;2.30;1.23;;;13.00;49.90;;;;;;5004573;28;20230;-84
2023/04/19 11:11:16;;;;;;;5.67;2.07;;;13.00;51.30;;;;;;5008639;28;20193;-84
2023/04/19 11:13:46;;;;;;;1.47;1.30;;;13.00;52.00;;;;;;4969486;28;20606;-85
2023/04/19 11:16:14;;;;;;;1.30;1.20;;;13.20;52.30;;;;;;5008183;28;20218;-84
2023/04/19 11:18:42;;;;;;;3.37;1.30;;;13.30;51.50;;;;;;4984343;28;20512;-85
2023/04/19 11:21:13;;;;;;;1.90;1.10;;;13.40;51.50;;;;;;4975885;28;20224;-85
2023/04/19 11:23:40;;;;;;;2.40;1.50;;;13.40;50.60;;;;;;4979787;28;20216;-85
2023/04/19 11:26:10;;;;;;;3.37;1.23;;;13.30;50.90;;;;;;5006153;28;20869;-84
2023/04/19 11:28:39;;;;;;;2.30;1.30;;;13.40;50.40;;;;;;4962143;28;20519;-86
2023/04/19 11:31:07;;;;;;;2.43;1.57;;;13.30;50.30;;;;;;5017193;28;20254;-85
2023/04/19 11:33:36;;;;;;;5.93;1.67;;;13.30;50.00;;;;;;4988703;28;20814;-83
2023/04/19 11:36:11;;;;;;;4.60;1.20;;;13.30;48.80;;;;;;4994602;28;20204;-83
2023/04/19 11:38:38;;;;;;;2.40;1.27;;;13.20;48.10;;;;;;4990207;28;20337;-84
2023/04/19 11:41:05;;;;;;;2.40;1.27;;;13.00;47.90;;;;;;4986537;28;20288;-84
2023/04/19 11:43:33;;;;;;;1.23;1.13;;;13.00;48.40;;;;;;4967487;28;20209;-84
2023/04/19 11:46:25;;;;;;;2.57;1.13;;;13.00;48.30;;;;;;5007329;28;20331;-84
2023/04/19 11:48:54;;;;;;;2.00;1.00;;;13.10;50.70;;;;;;4991857;28;20229;-83
2023/04/19 11:51:21;;;;;;;4.43;1.47;;;13.30;50.00;;;;;;4978884;28;20206;-85
2023/04/19 11:53:48;;;;;;;3.97;1.40;;;13.20;48.50;;;;;;5000761;28;20888;-84
2023/04/19 11:56:17;;;;;;;4.13;1.33;;;13.10;48.80;;;;;;4990358;28;20228;-84
2023/04/19 11:58:47;;;;;;;3.23;1.63;;;13.10;48.40;;;;;;4986649;28;20275;-85
2023/04/19 12:01:16;;;;;;;3.47;1.37;;;13.00;48.00;;;;;;4991341;28;20200;-84
2023/04/19 12:03:47;;;;;;;6.73;1.70;;;13.00;47.30;;;;;;4990568;28;20203;-83
2023/04/19 12:06:35;;;;;;;1.50;1.40;;;13.00;47.90;;;;;;5005998;28;20216;-88
2023/04/19 12:09:08;;;;;;;3.93;1.00;;;13.00;47.80;;;;;;4988294;28;20286;-88
2023/04/19 12:11:53;;;;;;;3.23;1.40;;;13.00;47.60;;;;;;5001198;28;20282;-92
2023/04/19 12:14:22;;;;;;;1.40;1.30;;;13.10;46.60;;;;;;5003118;28;20298;-87
2023/04/19 12:17:10;;;;;;;6.03;1.27;;;13.00;47.30;;;;;;4988691;28;20292;-91
2023/04/19 12:19:44;;;;;;;1.87;1.10;;;13.00;47.50;;;;;;4984997;28;20252;-86
2023/04/19 12:22:13;;;;;;;4.90;1.40;;;13.00;48.10;;;;;;5010988;28;20196;-89
2023/04/19 12:24:41;;;;;;;3.40;1.50;;;13.00;48.30;;;;;;5010460;28;20232;-86
2023/04/19 12:27:10;;;;;;;4.20;1.33;;;13.10;48.00;;;;;;5006312;28;20794;-90
2023/04/19 12:29:41;;;;;;;2.63;1.27;;;13.00;47.60;;;;;;4982474;28;20307;-90
2023/04/19 12:32:14;;;;;;;1.53;1.10;;;12.80;47.70;;;;;;4987463;28;21212;-89
2023/04/19 12:34:43;;;;;;;4.37;1.30;;;12.80;48.00;;;;;;4979072;28;20213;-90
2023/04/19 12:37:10;;;;;;;3.20;1.43;;;12.80;48.50;;;;;;5000823;28;20224;-88
2023/04/19 12:39:39;;;;;;;3.83;1.20;;;12.90;48.20;;;;;;4999593;28;20575;-90
2023/04/19 12:42:05;;;;;;;2.63;1.30;;;12.90;48.40;;;;;;4995622;28;20664;-90
2023/04/19 12:44:32;;;;;;;5.93;1.37;;;12.80;47.60;;;;;;5011381;28;20207;-90
2023/04/19 12:46:59;;;;;;;2.03;1.20;;;12.90;48.40;;;;;;4993045;28;20805;-89
2023/04/19 12:49:29;;;;;;;4.97;1.47;;;13.00;48.20;;;;;;4991349;28;20267;-88
2023/04/19 12:51:58;;;;;;;5.60;1.40;;;13.00;48.70;;;;;;4981003;28;20196;-87
2023/04/19 12:54:25;;;;;;;7.23;1.77;;;13.00;47.50;;;;;;5001864;28;20774;-87
2023/04/19 12:56:51;;;;;;;6.00;1.20;;;12.90;47.20;;;;;;4984000;28;20631;-92
2023/04/19 12:59:18;;;;;;;3.67;1.30;;;12.90;47.50;;;;;;4981014;28;20232;-88
2023/04/19 13:01:46;;;;;;;4.30;1.17;;;12.90;47.40;;;;;;5009211;28;20572;-90
2023/04/19 13:04:12;;;;;;;7.83;1.43;;;12.90;47.50;;;;;;5005485;28;20211;-88
2023/04/19 13:06:40;;;;;;;5.17;1.30;;;12.90;47.60;;;;;;4992329;28;20701;-90